createdAt,value
2022-07-25T00:00:22.544Z,96.92
2022-07-25T00:03:25.224Z,97.76
2022-07-25T00:06:31.284Z,97.61
2022-07-25T00:09:34.008Z,97.82
2022-07-25T00:12:38.534Z,98.16
2022-07-25T00:15:41.355Z,98.49
2022-07-25T00:18:44.147Z,98.47
2022-07-25T00:21:47.022Z,98.46
2022-07-25T00:24:49.713Z,99.01
2022-07-25T00:27:53.775Z,99.28
2022-07-25T00:30:56.701Z,99.10
2022-07-25T00:33:59.442Z,99.57
2022-07-25T00:37:02.153Z,99.65
2022-07-25T00:40:06.025Z,99.96
2022-07-25T00:43:10.072Z,100.00
2022-07-25T00:46:14.235Z,100.00
2022-07-25T00:49:21.922Z,100.00
2022-07-25T00:52:24.703Z,100.00
2022-07-25T00:55:28.400Z,100.00
2022-07-25T00:58:32.648Z,100.00
2022-07-25T01:01:35.448Z,100.00
2022-07-25T01:04:38.272Z,100.00
2022-07-25T01:07:41.192Z,100.00
2022-07-25T01:10:44.153Z,100.00
2022-07-25T01:13:48.254Z,100.00
2022-07-25T01:16:51.166Z,100.00
2022-07-25T01:19:53.943Z,100.00
2022-07-25T01:22:58.657Z,100.00
2022-07-25T01:26:01.360Z,100.00
2022-07-25T01:29:04.732Z,100.00
2022-07-25T01:32:07.620Z,100.00
2022-07-25T01:35:12.276Z,100.00
2022-07-25T01:38:16.816Z,100.00
2022-07-25T01:41:22.638Z,100.00
2022-07-25T01:44:26.068Z,100.00
2022-07-25T01:47:28.782Z,100.00
2022-07-25T01:50:31.559Z,100.00
2022-07-25T01:53:35.628Z,100.00
2022-07-25T01:56:43.600Z,100.00
2022-07-25T01:59:49.787Z,100.00
2022-07-25T02:03:13.357Z,100.00
2022-07-25T02:06:16.116Z,100.00
2022-07-25T02:09:20.191Z,100.00
2022-07-25T02:12:22.864Z,100.00
2022-07-25T02:15:25.574Z,100.00
2022-07-25T02:18:28.300Z,100.00
2022-07-25T02:21:31.033Z,100.00
2022-07-25T02:24:37.124Z,100.00
2022-07-25T02:27:39.845Z,100.00
2022-07-25T02:30:42.598Z,100.00
2022-07-25T02:33:45.478Z,100.00
2022-07-25T02:36:48.333Z,100.00
2022-07-25T02:39:52.405Z,100.00
2022-07-25T02:42:55.094Z,100.00
2022-07-25T02:45:58.053Z,100.00
2022-07-25T02:49:01.135Z,100.00
2022-07-25T02:52:04.099Z,100.00
2022-07-25T02:55:09.953Z,100.00
2022-07-25T02:58:12.816Z,100.00
2022-07-25T03:01:16.068Z,100.00
2022-07-25T03:04:18.895Z,100.00
2022-07-25T03:07:22.659Z,100.00
2022-07-25T03:10:26.849Z,100.00
2022-07-25T03:13:29.602Z,100.00
2022-07-25T03:16:32.592Z,100.00
2022-07-25T03:19:35.393Z,100.00
2022-07-25T03:22:38.390Z,100.00
2022-07-25T03:25:42.505Z,100.00
2022-07-25T03:28:45.253Z,100.00
2022-07-25T03:31:48.488Z,100.00
2022-07-25T03:34:51.232Z,100.00
2022-07-25T03:37:53.976Z,100.00
2022-07-25T03:40:58.099Z,100.00
2022-07-25T03:44:00.898Z,100.00
2022-07-25T03:47:03.577Z,100.00
2022-07-25T03:50:07.041Z,100.00
2022-07-25T03:53:10.423Z,100.00
2022-07-25T03:56:14.525Z,100.00
2022-07-25T03:59:20.103Z,100.00
2022-07-25T04:02:22.875Z,100.00
2022-07-25T04:05:25.996Z,100.00
2022-07-25T04:08:28.728Z,100.00
2022-07-25T04:11:32.844Z,100.00
2022-07-25T04:14:35.597Z,100.00
2022-07-25T04:17:38.859Z,100.00
2022-07-25T04:20:42.367Z,100.00
2022-07-25T04:23:45.089Z,100.00
2022-07-25T04:26:49.099Z,100.00
2022-07-25T04:29:52.131Z,100.00
2022-07-25T04:32:54.811Z,100.00
2022-07-25T04:35:57.553Z,100.00
2022-07-25T04:39:00.262Z,100.00
2022-07-25T04:42:04.732Z,100.00
2022-07-25T04:45:08.681Z,100.00
2022-07-25T04:48:11.398Z,100.00
2022-07-25T04:51:14.110Z,100.00
2022-07-25T04:54:16.801Z,100.00
2022-07-25T04:57:20.913Z,100.00
2022-07-25T05:00:24.354Z,100.00
2022-07-25T05:03:27.687Z,100.00
2022-07-25T05:06:30.516Z,100.00
2022-07-25T05:09:33.218Z,100.00
2022-07-25T05:12:37.332Z,100.00
2022-07-25T05:15:40.051Z,100.00
2022-07-25T05:18:42.798Z,100.00
2022-07-25T05:21:45.467Z,100.00
2022-07-25T05:24:48.666Z,100.00
2022-07-25T05:27:54.619Z,100.00
2022-07-25T05:30:57.323Z,100.00
2022-07-25T05:34:00.290Z,100.00
2022-07-25T05:37:03.077Z,100.00
2022-07-25T05:40:07.400Z,100.00
2022-07-25T05:43:11.466Z,100.00
2022-07-25T05:46:14.841Z,100.00
2022-07-25T05:49:17.769Z,99.01
2022-07-25T05:52:20.512Z,98.57
2022-07-25T05:55:23.314Z,94.63
2022-07-25T05:58:30.109Z,95.12
2022-07-25T06:01:33.072Z,96.37
2022-07-25T06:04:35.921Z,94.90
2022-07-25T06:07:38.826Z,91.77
2022-07-25T06:10:42.505Z,93.09
2022-07-25T06:13:47.565Z,91.12
2022-07-25T06:16:50.638Z,90.15
2022-07-25T06:19:54.221Z,87.86
2022-07-25T06:22:57.336Z,89.25
2022-07-25T06:26:00.305Z,88.50
2022-07-25T06:29:04.926Z,85.23
2022-07-25T06:32:07.934Z,86.09
2022-07-25T06:35:11.208Z,85.26
2022-07-25T06:38:14.027Z,83.19
2022-07-25T06:41:17.056Z,81.51
2022-07-25T06:44:21.300Z,81.33
2022-07-25T06:47:24.101Z,82.67
2022-07-25T06:50:27.439Z,79.46
2022-07-25T06:53:30.271Z,78.74
2022-07-25T06:56:33.114Z,76.94
2022-07-25T06:59:37.341Z,73.95
2022-07-25T07:02:50.323Z,72.59
2022-07-25T07:05:53.389Z,71.06
2022-07-25T07:08:56.236Z,69.43
2022-07-25T07:11:59.005Z,68.10
2022-07-25T07:15:03.118Z,71.66
2022-07-25T07:18:06.552Z,68.89
2022-07-25T07:21:10.655Z,69.24
2022-07-25T07:24:24.181Z,69.46
2022-07-25T07:27:27.414Z,66.76
2022-07-25T07:30:58.732Z,63.62
2022-07-25T07:33:55.201Z,63.16
2022-07-25T07:36:57.927Z,60.40
2022-07-25T07:40:00.679Z,57.90
2022-07-25T07:43:04.013Z,59.54
2022-07-25T07:46:08.572Z,58.16
2022-07-25T07:49:11.919Z,58.42
2022-07-25T07:52:14.963Z,56.50
2022-07-25T07:55:35.593Z,57.74
2022-07-25T07:58:38.674Z,56.07
2022-07-25T08:01:42.825Z,55.37
2022-07-25T08:04:45.626Z,56.19
2022-07-25T08:07:48.533Z,54.83
2022-07-25T08:10:58.965Z,55.77
2022-07-25T08:14:02.223Z,53.27
2022-07-25T08:17:06.360Z,53.17
2022-07-25T08:20:36.447Z,54.59
2022-07-25T08:23:34.727Z,54.21
2022-07-25T08:26:37.515Z,54.10
2022-07-25T08:29:40.861Z,54.42
2022-07-25T08:32:53.594Z,52.46
2022-07-25T08:35:58.866Z,53.65
2022-07-25T08:39:01.779Z,50.32
2022-07-25T08:42:09.206Z,50.60
2022-07-25T08:45:16.328Z,51.22
2022-07-25T08:48:23.010Z,49.81
2022-07-25T08:51:26.030Z,49.89
2022-07-25T08:54:29.106Z,50.82
2022-07-25T08:57:32.003Z,47.54
2022-07-25T09:00:34.774Z,48.62
2022-07-25T09:03:40.351Z,48.76
2022-07-25T09:06:50.403Z,48.24
2022-07-25T09:09:53.150Z,47.71
2022-07-25T09:12:57.793Z,48.34
2022-07-25T09:16:00.859Z,48.45
2022-07-25T09:19:13.645Z,47.12
2022-07-25T09:22:16.696Z,48.71
2022-07-25T09:25:25.158Z,44.43
2022-07-25T09:28:27.930Z,45.80
2022-07-25T09:31:35.004Z,45.04
2022-07-25T09:34:40.381Z,42.61
2022-07-25T09:37:43.149Z,43.51
2022-07-25T09:40:55.688Z,43.26
2022-07-25T09:43:58.506Z,44.35
2022-07-25T09:47:11.341Z,45.52
2022-07-25T09:50:15.472Z,46.47
2022-07-25T09:53:18.765Z,45.02
2022-07-25T09:56:21.531Z,43.00
2022-07-25T09:59:24.277Z,42.23
2022-07-25T10:02:38.967Z,43.14
2022-07-25T10:05:56.580Z,41.53
2022-07-25T10:09:00.308Z,41.83
2022-07-25T10:12:07.457Z,42.18
2022-07-25T10:15:12.314Z,42.24
2022-07-25T10:18:15.963Z,41.05
2022-07-25T10:21:28.975Z,41.02
2022-07-25T10:24:34.781Z,42.31
2022-07-25T10:27:44.602Z,40.38
2022-07-25T10:30:47.675Z,42.61
2022-07-25T10:33:56.874Z,41.86
2022-07-25T10:37:11.993Z,41.36
2022-07-25T10:40:27.951Z,44.15
2022-07-25T10:43:37.472Z,40.66
2022-07-25T10:46:40.501Z,40.52
2022-07-25T10:50:13.235Z,40.71
2022-07-25T10:53:09.239Z,40.48
2022-07-25T10:56:14.910Z,40.78
2022-07-25T10:59:27.219Z,38.86
2022-07-25T11:02:30.092Z,40.08
2022-07-25T11:05:32.912Z,41.41
2022-07-25T11:08:37.191Z,40.84
2022-07-25T11:11:43.183Z,41.43
2022-07-25T11:14:47.548Z,39.99
2022-07-25T11:17:52.169Z,39.60
2022-07-25T11:21:04.237Z,39.16
2022-07-25T11:24:10.303Z,40.44
2022-07-25T11:27:22.680Z,39.83
2022-07-25T11:30:25.526Z,40.14
2022-07-25T11:33:28.702Z,39.24
2022-07-25T11:36:31.592Z,38.11
2022-07-25T11:39:37.754Z,38.80
2022-07-25T11:42:41.754Z,38.86
2022-07-25T11:45:44.652Z,37.64
2022-07-25T11:48:48.156Z,39.31
2022-07-25T11:51:50.938Z,38.39
2022-07-25T11:54:57.404Z,38.58
2022-07-25T11:58:01.989Z,38.31
2022-07-25T12:01:13.135Z,39.20
2022-07-25T12:04:17.680Z,37.81
2022-07-25T12:07:20.510Z,38.08
2022-07-25T12:10:32.581Z,38.73
2022-07-25T12:13:37.140Z,36.37
2022-07-25T12:16:40.728Z,38.25
2022-07-25T12:19:46.926Z,38.12
2022-07-25T12:22:50.799Z,37.45
2022-07-25T12:25:54.945Z,36.79
2022-07-25T12:28:57.663Z,39.07
2022-07-25T12:32:00.420Z,37.85
2022-07-25T12:35:03.554Z,38.13
2022-07-25T12:38:06.518Z,37.77
2022-07-25T12:41:13.493Z,38.61
2022-07-25T12:44:18.726Z,38.69
2022-07-25T12:47:21.757Z,38.54
2022-07-25T12:50:25.733Z,38.04
2022-07-25T12:53:28.566Z,39.27
2022-07-25T12:56:32.630Z,38.32
2022-07-25T12:59:35.372Z,37.80
2022-07-25T13:02:38.882Z,37.01
2022-07-25T13:05:42.099Z,37.04
2022-07-25T13:08:45.593Z,36.23
2022-07-25T13:11:50.562Z,34.44
2022-07-25T13:14:53.573Z,33.20
2022-07-25T13:17:56.326Z,34.55
2022-07-25T13:21:00.611Z,34.24
2022-07-25T13:24:03.358Z,33.24
2022-07-25T13:27:07.939Z,34.45
2022-07-25T13:30:11.686Z,33.44
2022-07-25T13:33:14.480Z,33.67
2022-07-25T13:36:17.341Z,34.19
2022-07-25T13:39:22.323Z,34.23
2022-07-25T13:42:26.462Z,34.85
2022-07-25T13:45:29.437Z,34.28
2022-07-25T13:48:32.600Z,35.90
2022-07-25T13:51:35.454Z,35.30
2022-07-25T13:54:38.679Z,33.85
2022-07-25T13:57:42.779Z,34.49
2022-07-25T14:00:46.068Z,33.04
2022-07-25T14:03:48.941Z,34.05
2022-07-25T14:06:52.832Z,33.42
2022-07-25T14:09:55.665Z,33.76
2022-07-25T14:12:59.731Z,33.98
2022-07-25T14:16:02.938Z,32.76
2022-07-25T14:19:06.115Z,33.16
2022-07-25T14:22:09.139Z,32.96
2022-07-25T14:25:12.935Z,32.78
2022-07-25T14:28:17.095Z,33.09
2022-07-25T14:31:21.256Z,35.16
2022-07-25T14:34:24.177Z,33.18
2022-07-25T14:37:26.948Z,33.78
2022-07-25T14:40:29.700Z,34.59
2022-07-25T14:43:33.897Z,34.26
2022-07-25T14:46:36.970Z,34.90
2022-07-25T14:49:40.992Z,33.47
2022-07-25T14:52:43.695Z,32.32
2022-07-25T14:55:46.459Z,32.27
2022-07-25T14:58:50.604Z,32.55
2022-07-25T15:01:53.378Z,32.78
2022-07-25T15:04:56.237Z,32.48
2022-07-25T15:07:59.022Z,33.69
2022-07-25T15:11:01.840Z,33.81
2022-07-25T15:14:05.900Z,34.77
2022-07-25T15:17:08.694Z,33.43
2022-07-25T15:20:12.289Z,33.72
2022-07-25T15:23:15.219Z,34.29
2022-07-25T15:26:17.997Z,33.64
2022-07-25T15:29:22.126Z,34.96
2022-07-25T15:32:25.045Z,34.50
2022-07-25T15:35:28.063Z,34.82
2022-07-25T15:38:30.925Z,34.19
2022-07-25T15:41:33.659Z,35.83
2022-07-25T15:44:37.976Z,34.64
2022-07-25T15:47:41.399Z,34.49
2022-07-25T15:50:45.812Z,34.38
2022-07-25T15:53:48.636Z,35.04
2022-07-25T15:56:51.398Z,34.54
2022-07-25T15:59:58.335Z,34.65
2022-07-25T16:03:01.074Z,34.85
2022-07-25T16:06:04.583Z,35.11
2022-07-25T16:09:08.280Z,35.08
2022-07-25T16:12:12.046Z,35.49
2022-07-25T16:15:16.382Z,36.02
2022-07-25T16:18:19.280Z,36.07
2022-07-25T16:21:21.972Z,36.46
2022-07-25T16:24:24.959Z,36.29
2022-07-25T16:27:27.800Z,37.57
2022-07-25T16:30:31.931Z,37.47
2022-07-25T16:33:34.753Z,37.38
2022-07-25T16:36:37.601Z,38.22
2022-07-25T16:39:40.549Z,38.31
2022-07-25T16:42:55.726Z,38.58
2022-07-25T16:49:31.887Z,38.76
2022-07-25T16:52:34.645Z,39.20
2022-07-25T16:55:37.514Z,38.64
2022-07-25T16:58:40.466Z,38.24
2022-07-25T17:01:46.423Z,37.97
2022-07-25T17:04:49.408Z,38.01
2022-07-25T17:07:58.815Z,38.64
2022-07-25T17:11:02.607Z,38.93
2022-07-25T17:14:05.389Z,39.93
2022-07-25T17:17:09.660Z,39.52
2022-07-25T17:20:13.190Z,40.56
2022-07-25T17:23:16.027Z,39.31
2022-07-25T17:26:19.326Z,40.42
2022-07-25T17:29:22.312Z,41.13
2022-07-25T17:32:30.010Z,40.33
2022-07-25T17:35:33.221Z,41.88
2022-07-25T17:38:36.175Z,46.68
2022-07-25T17:41:38.976Z,50.64
2022-07-25T17:44:41.842Z,55.10
2022-07-25T17:47:46.038Z,57.80
2022-07-25T17:50:49.033Z,59.29
2022-07-25T17:53:51.845Z,61.61
2022-07-25T17:56:54.606Z,62.34
2022-07-25T17:59:57.640Z,62.50
2022-07-25T18:03:01.802Z,63.26
2022-07-25T18:06:05.027Z,63.99
2022-07-25T18:09:08.596Z,64.85
2022-07-25T18:12:11.314Z,67.25
2022-07-25T18:15:15.072Z,67.60
2022-07-25T18:18:20.750Z,67.95
2022-07-25T18:21:24.449Z,68.09
2022-07-25T18:24:29.360Z,67.87
2022-07-25T18:27:32.476Z,68.17
2022-07-25T18:30:35.241Z,67.96
2022-07-25T18:33:39.361Z,68.21
2022-07-25T18:36:42.982Z,68.81
2022-07-25T18:39:45.792Z,69.53
2022-07-25T18:42:48.568Z,70.07
2022-07-25T18:45:51.605Z,69.82
2022-07-25T18:48:55.886Z,69.41
2022-07-25T18:51:58.683Z,69.44
2022-07-25T18:55:01.659Z,73.77
2022-07-25T18:58:06.055Z,76.47
2022-07-25T19:01:09.225Z,73.75
2022-07-25T19:04:13.416Z,74.79
2022-07-25T19:07:16.774Z,75.63
2022-07-25T19:10:19.624Z,76.63
2022-07-25T19:13:47.671Z,77.43
2022-07-25T19:16:45.155Z,78.96
2022-07-25T19:19:52.709Z,79.19
2022-07-25T19:22:58.357Z,80.19
2022-07-25T19:26:02.797Z,77.40
2022-07-25T19:29:06.855Z,79.57
2022-07-25T19:32:09.702Z,80.37
2022-07-25T19:35:14.355Z,80.28
2022-07-25T19:38:17.066Z,81.55
2022-07-25T19:41:19.854Z,80.38
2022-07-25T19:44:22.674Z,80.35
2022-07-25T19:47:25.442Z,78.43
2022-07-25T19:50:29.738Z,80.48
2022-07-25T19:53:33.154Z,81.80
2022-07-25T19:56:35.988Z,84.62
2022-07-25T19:59:38.732Z,84.61
2022-07-25T20:02:43.375Z,86.84
2022-07-25T20:05:47.523Z,89.48
2022-07-25T20:08:50.210Z,89.78
2022-07-25T20:11:53.014Z,91.66
2022-07-25T20:14:55.743Z,91.78
2022-07-25T20:17:58.699Z,90.46
2022-07-25T20:21:02.870Z,89.37
2022-07-25T20:24:06.075Z,88.92
2022-07-25T20:27:08.804Z,90.65
2022-07-25T20:30:13.353Z,95.05
2022-07-25T20:33:17.277Z,94.82
2022-07-25T20:36:21.561Z,97.40
2022-07-25T20:39:24.291Z,97.98
2022-07-25T20:42:27.061Z,98.48
2022-07-25T20:45:29.775Z,100.00
2022-07-25T20:48:32.559Z,100.00
2022-07-25T20:51:37.365Z,100.00
2022-07-25T20:54:42.158Z,100.00
2022-07-25T20:57:50.122Z,100.00
2022-07-25T21:00:53.386Z,100.00
2022-07-25T21:03:56.330Z,100.00
2022-07-25T21:07:00.443Z,100.00
2022-07-25T21:10:03.203Z,100.00
2022-07-25T21:13:06.185Z,100.00
2022-07-25T21:16:09.290Z,100.00
2022-07-25T21:19:12.110Z,100.00
2022-07-25T21:22:16.572Z,100.00
2022-07-25T21:25:19.327Z,100.00
2022-07-25T21:28:22.159Z,100.00
2022-07-25T21:31:25.156Z,100.00
2022-07-25T21:34:27.902Z,100.00
2022-07-25T21:37:32.191Z,100.00
2022-07-25T21:40:35.244Z,100.00
2022-07-25T21:43:37.983Z,100.00
2022-07-25T21:46:40.673Z,100.00
2022-07-25T21:50:02.874Z,100.00
2022-07-25T21:53:11.798Z,100.00
2022-07-25T21:56:15.475Z,100.00
2022-07-25T21:59:18.193Z,100.00
2022-07-25T22:02:20.916Z,100.00
2022-07-25T22:05:24.749Z,100.00
2022-07-25T22:08:29.058Z,100.00
2022-07-25T22:11:38.889Z,100.00
2022-07-25T22:14:48.456Z,100.00
2022-07-25T22:17:51.361Z,100.00
2022-07-25T22:20:54.309Z,100.00
2022-07-25T22:23:58.367Z,100.00
2022-07-25T22:27:01.098Z,100.00
2022-07-25T22:30:04.716Z,100.00
2022-07-25T22:33:07.435Z,100.00
2022-07-25T22:36:10.629Z,100.00
2022-07-25T22:39:14.642Z,100.00
2022-07-25T22:42:17.327Z,100.00
2022-07-25T22:45:22.442Z,100.00
2022-07-25T22:48:25.169Z,100.00
2022-07-25T22:51:28.932Z,100.00
2022-07-25T22:54:33.174Z,100.00
2022-07-25T22:57:37.214Z,100.00
2022-07-25T23:00:40.351Z,100.00
2022-07-25T23:03:43.116Z,100.00
2022-07-25T23:06:46.486Z,100.00
2022-07-25T23:09:50.542Z,100.00
2022-07-25T23:12:53.285Z,100.00
2022-07-25T23:15:56.208Z,100.00
2022-07-25T23:18:58.956Z,100.00
2022-07-25T23:22:01.696Z,100.00
2022-07-25T23:25:06.983Z,100.00
2022-07-25T23:28:09.781Z,100.00
2022-07-25T23:31:12.503Z,100.00
2022-07-25T23:34:15.343Z,100.00
2022-07-25T23:37:18.080Z,100.00
2022-07-25T23:40:22.233Z,100.00
2022-07-25T23:43:49.575Z,100.00
2022-07-25T23:46:47.875Z,100.00
2022-07-25T23:49:50.613Z,100.00
2022-07-25T23:52:53.498Z,100.00
2022-07-25T23:55:57.542Z,100.00
2022-07-25T23:59:00.284Z,100.00
